Terminal Aerodrome Forecast
Issued by NWS

Home | Current Version | Previous Version | Text Only | Print | Product List | Glossary Off
Versions: 1 2 3 4 5 6 7 8 9 10 11 12 13 14 15 16 17 18 19

000
FTUS43 KMPX 281507 AAA
TAFRNH
TAF AMD
KRNH 281507Z 2815/2912 18008KT P6SM SCT015 BKN080
     FM290400 VRB03KT P6SM BKN150
      TEMPO 2908/2912 3SM BR=

USA.gov is the U.S. government's official web portal to all federal, state and local government web resources and services.